sensor_id;sensor_type;location;lat;lon;timestamp;P1;durP1;ratioP1;P2;durP2;ratioP2
7195;SDS011;3639;51.308;5.624;2023-04-15T00:01:20;7.37;;;4.30;;
7195;SDS011;3639;51.308;5.624;2023-04-15T00:03:46;6.90;;;3.40;;
7195;SDS011;3639;51.308;5.624;2023-04-15T00:06:16;7.33;;;4.83;;
7195;SDS011;3639;51.308;5.624;2023-04-15T00:08:43;5.10;;;4.13;;
7195;SDS011;3639;51.308;5.624;2023-04-15T00:11:09;5.23;;;4.27;;
7195;SDS011;3639;51.308;5.624;2023-04-15T00:13:35;5.57;;;4.50;;
7195;SDS011;3639;51.308;5.624;2023-04-15T00:16:01;7.47;;;4.63;;
7195;SDS011;3639;51.308;5.624;2023-04-15T00:18:27;5.97;;;4.93;;
7195;SDS011;3639;51.308;5.624;2023-04-15T00:20:53;7.93;;;5.10;;
7195;SDS011;3639;51.308;5.624;2023-04-15T00:23:19;9.57;;;4.50;;
7195;SDS011;3639;51.308;5.624;2023-04-15T00:25:45;8.57;;;5.40;;
7195;SDS011;3639;51.308;5.624;2023-04-15T00:28:11;9.97;;;4.83;;
7195;SDS011;3639;51.308;5.624;2023-04-15T00:30:36;7.07;;;4.47;;
7195;SDS011;3639;51.308;5.624;2023-04-15T00:33:02;8.67;;;5.07;;
7195;SDS011;3639;51.308;5.624;2023-04-15T00:35:28;8.33;;;4.43;;
7195;SDS011;3639;51.308;5.624;2023-04-15T00:37:56;7.10;;;4.40;;
7195;SDS011;3639;51.308;5.624;2023-04-15T00:40:22;11.47;;;5.30;;
7195;SDS011;3639;51.308;5.624;2023-04-15T00:42:48;8.83;;;4.50;;
7195;SDS011;3639;51.308;5.624;2023-04-15T00:45:14;11.03;;;4.50;;
7195;SDS011;3639;51.308;5.624;2023-04-15T00:47:40;6.47;;;4.63;;
7195;SDS011;3639;51.308;5.624;2023-04-15T00:50:07;6.73;;;4.57;;
7195;SDS011;3639;51.308;5.624;2023-04-15T00:52:33;12.00;;;5.07;;
7195;SDS011;3639;51.308;5.624;2023-04-15T00:54:59;7.77;;;4.67;;
7195;SDS011;3639;51.308;5.624;2023-04-15T00:57:25;11.27;;;5.37;;
7195;SDS011;3639;51.308;5.624;2023-04-15T00:59:52;8.13;;;5.03;;
7195;SDS011;3639;51.308;5.624;2023-04-15T01:02:20;9.63;;;4.90;;
7195;SDS011;3639;51.308;5.624;2023-04-15T01:04:46;8.00;;;4.53;;
7195;SDS011;3639;51.308;5.624;2023-04-15T01:07:13;10.33;;;5.03;;
7195;SDS011;3639;51.308;5.624;2023-04-15T01:09:39;5.60;;;4.70;;
7195;SDS011;3639;51.308;5.624;2023-04-15T01:12:05;7.70;;;4.70;;
7195;SDS011;3639;51.308;5.624;2023-04-15T01:14:32;5.67;;;4.53;;
7195;SDS011;3639;51.308;5.624;2023-04-15T01:16:58;6.00;;;4.57;;
7195;SDS011;3639;51.308;5.624;2023-04-15T01:19:23;7.17;;;4.63;;
7195;SDS011;3639;51.308;5.624;2023-04-15T01:21:50;9.30;;;4.93;;
7195;SDS011;3639;51.308;5.624;2023-04-15T01:24:16;6.97;;;4.93;;
7195;SDS011;3639;51.308;5.624;2023-04-15T01:26:43;7.17;;;5.10;;
7195;SDS011;3639;51.308;5.624;2023-04-15T01:29:09;8.90;;;4.27;;
7195;SDS011;3639;51.308;5.624;2023-04-15T01:31:35;8.70;;;4.53;;
7195;SDS011;3639;51.308;5.624;2023-04-15T01:34:01;10.00;;;5.43;;
7195;SDS011;3639;51.308;5.624;2023-04-15T01:36:27;8.30;;;5.07;;
7195;SDS011;3639;51.308;5.624;2023-04-15T01:38:55;6.57;;;4.70;;
7195;SDS011;3639;51.308;5.624;2023-04-15T01:41:27;5.67;;;4.60;;
7195;SDS011;3639;51.308;5.624;2023-04-15T01:43:53;5.20;;;4.57;;
7195;SDS011;3639;51.308;5.624;2023-04-15T01:46:19;8.73;;;4.83;;
7195;SDS011;3639;51.308;5.624;2023-04-15T01:48:45;9.03;;;4.90;;
7195;SDS011;3639;51.308;5.624;2023-04-15T01:51:11;7.70;;;4.57;;
7195;SDS011;3639;51.308;5.624;2023-04-15T01:53:37;9.43;;;4.77;;
7195;SDS011;3639;51.308;5.624;2023-04-15T01:56:02;7.63;;;5.30;;
7195;SDS011;3639;51.308;5.624;2023-04-15T01:58:28;6.17;;;5.23;;
7195;SDS011;3639;51.308;5.624;2023-04-15T02:00:54;8.33;;;4.83;;
7195;SDS011;3639;51.308;5.624;2023-04-15T02:03:20;7.17;;;5.30;;
7195;SDS011;3639;51.308;5.624;2023-04-15T02:05:46;11.80;;;5.33;;
7195;SDS011;3639;51.308;5.624;2023-04-15T02:08:11;7.10;;;4.90;;
7195;SDS011;3639;51.308;5.624;2023-04-15T02:10:37;7.17;;;5.33;;
7195;SDS011;3639;51.308;5.624;2023-04-15T02:13:03;9.70;;;5.93;;
7195;SDS011;3639;51.308;5.624;2023-04-15T02:15:29;8.40;;;5.93;;
7195;SDS011;3639;51.308;5.624;2023-04-15T02:17:55;7.77;;;5.53;;
7195;SDS011;3639;51.308;5.624;2023-04-15T02:20:23;11.10;;;5.47;;
7195;SDS011;3639;51.308;5.624;2023-04-15T02:22:48;7.27;;;5.60;;
7195;SDS011;3639;51.308;5.624;2023-04-15T02:25:14;13.67;;;6.53;;
7195;SDS011;3639;51.308;5.624;2023-04-15T02:27:44;9.53;;;5.60;;
7195;SDS011;3639;51.308;5.624;2023-04-15T02:30:10;7.27;;;5.93;;
7195;SDS011;3639;51.308;5.624;2023-04-15T02:32:36;8.73;;;6.20;;
7195;SDS011;3639;51.308;5.624;2023-04-15T02:35:02;7.07;;;5.27;;
7195;SDS011;3639;51.308;5.624;2023-04-15T02:37:29;11.30;;;6.67;;
7195;SDS011;3639;51.308;5.624;2023-04-15T02:39:59;8.60;;;6.10;;
7195;SDS011;3639;51.308;5.624;2023-04-15T02:42:25;10.33;;;6.87;;
7195;SDS011;3639;51.308;5.624;2023-04-15T02:44:52;13.93;;;6.50;;
7195;SDS011;3639;51.308;5.624;2023-04-15T02:47:20;12.07;;;5.83;;
7195;SDS011;3639;51.308;5.624;2023-04-15T02:49:47;6.93;;;5.90;;
7195;SDS011;3639;51.308;5.624;2023-04-15T02:52:12;9.83;;;6.40;;
7195;SDS011;3639;51.308;5.624;2023-04-15T02:54:38;9.13;;;6.47;;
7195;SDS011;3639;51.308;5.624;2023-04-15T02:57:04;11.80;;;6.37;;
7195;SDS011;3639;51.308;5.624;2023-04-15T02:59:30;9.97;;;6.27;;
7195;SDS011;3639;51.308;5.624;2023-04-15T03:01:56;11.17;;;6.27;;
7195;SDS011;3639;51.308;5.624;2023-04-15T03:04:24;9.63;;;6.27;;
7195;SDS011;3639;51.308;5.624;2023-04-15T03:06:52;10.50;;;7.00;;
7195;SDS011;3639;51.308;5.624;2023-04-15T03:09:19;10.30;;;6.67;;
7195;SDS011;3639;51.308;5.624;2023-04-15T03:11:44;7.77;;;6.30;;
7195;SDS011;3639;51.308;5.624;2023-04-15T03:14:10;10.87;;;6.97;;
7195;SDS011;3639;51.308;5.624;2023-04-15T03:16:36;10.97;;;7.37;;
7195;SDS011;3639;51.308;5.624;2023-04-15T03:19:01;11.50;;;7.53;;
7195;SDS011;3639;51.308;5.624;2023-04-15T03:21:27;12.00;;;6.67;;
7195;SDS011;3639;51.308;5.624;2023-04-15T03:23:59;13.50;;;8.27;;
7195;SDS011;3639;51.308;5.624;2023-04-15T03:28:51;13.60;;;7.87;;
7195;SDS011;3639;51.308;5.624;2023-04-15T03:31:18;7.93;;;7.00;;
7195;SDS011;3639;51.308;5.624;2023-04-15T03:33:43;13.23;;;9.00;;
7195;SDS011;3639;51.308;5.624;2023-04-15T03:36:09;12.53;;;7.43;;
7195;SDS011;3639;51.308;5.624;2023-04-15T03:38:35;12.60;;;7.70;;
7195;SDS011;3639;51.308;5.624;2023-04-15T03:41:01;10.97;;;7.93;;
7195;SDS011;3639;51.308;5.624;2023-04-15T03:43:26;12.30;;;7.67;;
7195;SDS011;3639;51.308;5.624;2023-04-15T03:45:53;16.77;;;9.53;;
7195;SDS011;3639;51.308;5.624;2023-04-15T03:48:33;16.30;;;9.53;;
7195;SDS011;3639;51.308;5.624;2023-04-15T03:51:01;11.57;;;8.17;;
7195;SDS011;3639;51.308;5.624;2023-04-15T03:53:27;16.20;;;9.60;;
7195;SDS011;3639;51.308;5.624;2023-04-15T03:55:59;14.43;;;9.87;;
7195;SDS011;3639;51.308;5.624;2023-04-15T03:58:26;13.77;;;9.10;;
7195;SDS011;3639;51.308;5.624;2023-04-15T04:00:51;15.80;;;9.97;;
7195;SDS011;3639;51.308;5.624;2023-04-15T04:03:18;13.97;;;10.03;;
7195;SDS011;3639;51.308;5.624;2023-04-15T04:05:45;18.90;;;10.77;;
7195;SDS011;3639;51.308;5.624;2023-04-15T04:08:13;14.67;;;10.33;;
7195;SDS011;3639;51.308;5.624;2023-04-15T04:10:48;16.70;;;10.37;;
7195;SDS011;3639;51.308;5.624;2023-04-15T04:13:19;14.50;;;10.87;;
7195;SDS011;3639;51.308;5.624;2023-04-15T04:15:48;19.67;;;10.97;;
7195;SDS011;3639;51.308;5.624;2023-04-15T04:18:13;17.33;;;10.80;;
7195;SDS011;3639;51.308;5.624;2023-04-15T04:20:41;17.27;;;11.87;;
7195;SDS011;3639;51.308;5.624;2023-04-15T04:23:10;22.03;;;12.13;;
7195;SDS011;3639;51.308;5.624;2023-04-15T04:25:36;16.80;;;11.17;;
7195;SDS011;3639;51.308;5.624;2023-04-15T04:28:01;16.53;;;11.87;;
7195;SDS011;3639;51.308;5.624;2023-04-15T04:30:27;18.03;;;11.07;;
7195;SDS011;3639;51.308;5.624;2023-04-15T04:32:53;20.07;;;11.70;;
7195;SDS011;3639;51.308;5.624;2023-04-15T04:35:19;14.93;;;11.13;;
7195;SDS011;3639;51.308;5.624;2023-04-15T04:37:45;19.07;;;11.23;;
7195;SDS011;3639;51.308;5.624;2023-04-15T04:40:11;17.17;;;11.43;;
7195;SDS011;3639;51.308;5.624;2023-04-15T04:42:37;16.30;;;11.17;;
7195;SDS011;3639;51.308;5.624;2023-04-15T04:45:03;18.17;;;11.40;;
7195;SDS011;3639;51.308;5.624;2023-04-15T04:47:29;19.03;;;11.97;;
7195;SDS011;3639;51.308;5.624;2023-04-15T04:49:55;16.07;;;10.70;;
7195;SDS011;3639;51.308;5.624;2023-04-15T04:52:21;15.93;;;11.80;;
7195;SDS011;3639;51.308;5.624;2023-04-15T04:54:46;18.80;;;12.20;;
7195;SDS011;3639;51.308;5.624;2023-04-15T04:57:12;18.30;;;11.60;;
7195;SDS011;3639;51.308;5.624;2023-04-15T04:59:38;19.27;;;10.17;;
7195;SDS011;3639;51.308;5.624;2023-04-15T05:02:03;16.93;;;11.83;;
7195;SDS011;3639;51.308;5.624;2023-04-15T05:04:29;21.97;;;10.87;;
7195;SDS011;3639;51.308;5.624;2023-04-15T05:06:56;19.43;;;10.97;;
7195;SDS011;3639;51.308;5.624;2023-04-15T05:09:22;18.57;;;11.50;;
7195;SDS011;3639;51.308;5.624;2023-04-15T05:11:48;17.53;;;10.83;;
7195;SDS011;3639;51.308;5.624;2023-04-15T05:14:13;14.90;;;10.43;;
7195;SDS011;3639;51.308;5.624;2023-04-15T05:16:39;16.57;;;10.90;;
7195;SDS011;3639;51.308;5.624;2023-04-15T05:19:04;16.00;;;9.93;;
7195;SDS011;3639;51.308;5.624;2023-04-15T05:21:30;18.93;;;11.20;;
7195;SDS011;3639;51.308;5.624;2023-04-15T05:23:56;20.97;;;11.60;;
7195;SDS011;3639;51.308;5.624;2023-04-15T05:26:21;21.60;;;9.63;;
7195;SDS011;3639;51.308;5.624;2023-04-15T05:28:48;21.03;;;10.80;;
7195;SDS011;3639;51.308;5.624;2023-04-15T05:31:14;21.63;;;10.80;;
7195;SDS011;3639;51.308;5.624;2023-04-15T05:33:40;17.20;;;11.17;;
7195;SDS011;3639;51.308;5.624;2023-04-15T05:36:06;27.33;;;11.13;;
7195;SDS011;3639;51.308;5.624;2023-04-15T05:38:32;13.93;;;9.30;;
7195;SDS011;3639;51.308;5.624;2023-04-15T05:40:57;14.50;;;9.80;;
7195;SDS011;3639;51.308;5.624;2023-04-15T05:43:24;15.03;;;10.83;;
7195;SDS011;3639;51.308;5.624;2023-04-15T05:45:49;16.10;;;10.47;;
7195;SDS011;3639;51.308;5.624;2023-04-15T05:48:15;18.43;;;10.37;;
7195;SDS011;3639;51.308;5.624;2023-04-15T05:50:41;20.13;;;10.50;;
7195;SDS011;3639;51.308;5.624;2023-04-15T05:53:07;19.40;;;10.77;;
7195;SDS011;3639;51.308;5.624;2023-04-15T05:55:33;18.93;;;10.97;;
7195;SDS011;3639;51.308;5.624;2023-04-15T05:57:59;18.23;;;10.20;;
7195;SDS011;3639;51.308;5.624;2023-04-15T06:00:24;14.87;;;10.00;;
7195;SDS011;3639;51.308;5.624;2023-04-15T06:02:50;19.93;;;11.27;;
7195;SDS011;3639;51.308;5.624;2023-04-15T06:05:16;16.40;;;10.43;;
7195;SDS011;3639;51.308;5.624;2023-04-15T06:07:42;16.13;;;10.53;;
7195;SDS011;3639;51.308;5.624;2023-04-15T06:10:08;15.57;;;10.50;;
7195;SDS011;3639;51.308;5.624;2023-04-15T06:12:34;16.30;;;10.50;;
7195;SDS011;3639;51.308;5.624;2023-04-15T06:15:00;16.90;;;11.23;;
7195;SDS011;3639;51.308;5.624;2023-04-15T06:17:26;18.73;;;10.80;;
7195;SDS011;3639;51.308;5.624;2023-04-15T06:19:52;20.47;;;11.67;;
7195;SDS011;3639;51.308;5.624;2023-04-15T06:22:22;20.43;;;11.17;;
7195;SDS011;3639;51.308;5.624;2023-04-15T06:24:48;13.73;;;9.67;;
7195;SDS011;3639;51.308;5.624;2023-04-15T06:27:17;16.90;;;10.43;;
7195;SDS011;3639;51.308;5.624;2023-04-15T06:29:43;16.57;;;10.93;;
7195;SDS011;3639;51.308;5.624;2023-04-15T06:32:09;15.70;;;9.77;;
7195;SDS011;3639;51.308;5.624;2023-04-15T06:34:35;18.77;;;10.07;;
7195;SDS011;3639;51.308;5.624;2023-04-15T06:37:00;15.97;;;10.77;;
7195;SDS011;3639;51.308;5.624;2023-04-15T06:39:26;16.73;;;10.20;;
7195;SDS011;3639;51.308;5.624;2023-04-15T06:41:52;17.40;;;10.83;;
7195;SDS011;3639;51.308;5.624;2023-04-15T06:44:17;15.30;;;10.40;;
7195;SDS011;3639;51.308;5.624;2023-04-15T06:46:43;23.53;;;11.30;;
7195;SDS011;3639;51.308;5.624;2023-04-15T06:49:09;16.87;;;10.83;;
7195;SDS011;3639;51.308;5.624;2023-04-15T06:51:35;19.27;;;10.67;;
7195;SDS011;3639;51.308;5.624;2023-04-15T06:54:01;17.10;;;10.27;;
7195;SDS011;3639;51.308;5.624;2023-04-15T06:56:30;18.97;;;10.37;;
7195;SDS011;3639;51.308;5.624;2023-04-15T06:58:56;16.97;;;10.37;;
7195;SDS011;3639;51.308;5.624;2023-04-15T07:01:22;16.80;;;9.77;;
7195;SDS011;3639;51.308;5.624;2023-04-15T07:03:47;18.87;;;9.83;;
7195;SDS011;3639;51.308;5.624;2023-04-15T07:06:13;15.53;;;10.03;;
7195;SDS011;3639;51.308;5.624;2023-04-15T07:08:39;14.57;;;9.33;;
7195;SDS011;3639;51.308;5.624;2023-04-15T07:11:04;15.50;;;9.93;;
7195;SDS011;3639;51.308;5.624;2023-04-15T07:13:30;15.47;;;9.10;;
7195;SDS011;3639;51.308;5.624;2023-04-15T07:15:56;15.07;;;8.27;;
7195;SDS011;3639;51.308;5.624;2023-04-15T07:18:22;15.47;;;8.87;;
7195;SDS011;3639;51.308;5.624;2023-04-15T07:20:48;12.03;;;7.93;;
7195;SDS011;3639;51.308;5.624;2023-04-15T07:23:14;15.10;;;9.07;;
7195;SDS011;3639;51.308;5.624;2023-04-15T07:25:40;15.30;;;9.63;;
7195;SDS011;3639;51.308;5.624;2023-04-15T07:28:05;15.30;;;9.03;;
7195;SDS011;3639;51.308;5.624;2023-04-15T07:30:31;13.27;;;8.97;;
7195;SDS011;3639;51.308;5.624;2023-04-15T07:32:57;17.47;;;9.70;;
7195;SDS011;3639;51.308;5.624;2023-04-15T07:35:23;15.27;;;9.40;;
7195;SDS011;3639;51.308;5.624;2023-04-15T07:37:50;12.80;;;9.07;;
7195;SDS011;3639;51.308;5.624;2023-04-15T07:40:16;12.00;;;8.20;;
7195;SDS011;3639;51.308;5.624;2023-04-15T07:42:42;13.73;;;8.30;;
7195;SDS011;3639;51.308;5.624;2023-04-15T07:45:08;12.33;;;8.10;;
7195;SDS011;3639;51.308;5.624;2023-04-15T07:47:34;10.83;;;7.67;;
7195;SDS011;3639;51.308;5.624;2023-04-15T07:50:00;13.00;;;8.53;;
7195;SDS011;3639;51.308;5.624;2023-04-15T07:52:26;13.23;;;8.10;;
7195;SDS011;3639;51.308;5.624;2023-04-15T07:54:52;13.23;;;8.17;;
7195;SDS011;3639;51.308;5.624;2023-04-15T07:57:18;12.40;;;8.03;;
7195;SDS011;3639;51.308;5.624;2023-04-15T07:59:44;13.47;;;8.30;;
7195;SDS011;3639;51.308;5.624;2023-04-15T08:02:10;11.63;;;6.93;;
7195;SDS011;3639;51.308;5.624;2023-04-15T08:04:36;9.50;;;7.07;;
7195;SDS011;3639;51.308;5.624;2023-04-15T08:07:02;11.60;;;7.40;;
7195;SDS011;3639;51.308;5.624;2023-04-15T08:09:29;11.40;;;7.63;;
7195;SDS011;3639;51.308;5.624;2023-04-15T08:11:54;12.23;;;7.73;;
7195;SDS011;3639;51.308;5.624;2023-04-15T08:14:21;12.07;;;7.50;;
7195;SDS011;3639;51.308;5.624;2023-04-15T08:16:47;12.33;;;6.77;;
7195;SDS011;3639;51.308;5.624;2023-04-15T08:19:12;8.90;;;6.20;;
7195;SDS011;3639;51.308;5.624;2023-04-15T08:21:38;8.47;;;6.40;;
7195;SDS011;3639;51.308;5.624;2023-04-15T08:24:05;8.83;;;5.67;;
7195;SDS011;3639;51.308;5.624;2023-04-15T08:26:31;8.03;;;6.30;;
7195;SDS011;3639;51.308;5.624;2023-04-15T08:28:57;8.47;;;5.77;;
7195;SDS011;3639;51.308;5.624;2023-04-15T08:31:25;7.80;;;5.43;;
7195;SDS011;3639;51.308;5.624;2023-04-15T08:33:51;6.73;;;4.70;;
7195;SDS011;3639;51.308;5.624;2023-04-15T08:36:18;7.47;;;4.87;;
7195;SDS011;3639;51.308;5.624;2023-04-15T08:38:44;6.50;;;4.60;;
7195;SDS011;3639;51.308;5.624;2023-04-15T08:41:20;6.40;;;4.40;;
7195;SDS011;3639;51.308;5.624;2023-04-15T08:43:57;5.03;;;4.30;;
7195;SDS011;3639;51.308;5.624;2023-04-15T08:46:26;5.93;;;4.50;;
7195;SDS011;3639;51.308;5.624;2023-04-15T08:48:52;6.90;;;4.47;;
7195;SDS011;3639;51.308;5.624;2023-04-15T08:51:21;6.83;;;4.43;;
7195;SDS011;3639;51.308;5.624;2023-04-15T08:53:47;7.67;;;4.70;;
7195;SDS011;3639;51.308;5.624;2023-04-15T08:56:14;9.03;;;5.10;;
7195;SDS011;3639;51.308;5.624;2023-04-15T08:58:43;5.10;;;4.53;;
7195;SDS011;3639;51.308;5.624;2023-04-15T09:01:13;7.90;;;4.90;;
7195;SDS011;3639;51.308;5.624;2023-04-15T09:03:39;9.00;;;5.07;;
7195;SDS011;3639;51.308;5.624;2023-04-15T09:06:05;7.53;;;5.23;;
7195;SDS011;3639;51.308;5.624;2023-04-15T09:08:31;6.40;;;4.77;;
7195;SDS011;3639;51.308;5.624;2023-04-15T09:10:59;5.73;;;3.93;;
7195;SDS011;3639;51.308;5.624;2023-04-15T09:13:25;8.80;;;5.03;;
7195;SDS011;3639;51.308;5.624;2023-04-15T09:15:51;6.50;;;4.77;;
7195;SDS011;3639;51.308;5.624;2023-04-15T09:18:38;6.83;;;4.63;;
7195;SDS011;3639;51.308;5.624;2023-04-15T09:21:07;6.50;;;4.73;;
7195;SDS011;3639;51.308;5.624;2023-04-15T09:23:40;6.97;;;4.70;;
7195;SDS011;3639;51.308;5.624;2023-04-15T09:26:18;7.37;;;5.33;;
7195;SDS011;3639;51.308;5.624;2023-04-15T09:28:44;6.60;;;4.63;;
7195;SDS011;3639;51.308;5.624;2023-04-15T09:31:10;5.80;;;4.40;;
7195;SDS011;3639;51.308;5.624;2023-04-15T09:33:36;6.53;;;4.83;;
7195;SDS011;3639;51.308;5.624;2023-04-15T09:36:20;7.93;;;5.17;;
7195;SDS011;3639;51.308;5.624;2023-04-15T09:38:56;6.87;;;4.70;;
7195;SDS011;3639;51.308;5.624;2023-04-15T09:41:23;6.80;;;4.27;;
7195;SDS011;3639;51.308;5.624;2023-04-15T09:43:50;5.77;;;3.80;;
7195;SDS011;3639;51.308;5.624;2023-04-15T09:46:16;5.87;;;4.23;;
7195;SDS011;3639;51.308;5.624;2023-04-15T09:48:42;5.00;;;3.90;;
7195;SDS011;3639;51.308;5.624;2023-04-15T09:51:08;5.80;;;4.27;;
7195;SDS011;3639;51.308;5.624;2023-04-15T09:53:34;5.80;;;4.10;;
7195;SDS011;3639;51.308;5.624;2023-04-15T09:56:01;6.70;;;4.20;;
7195;SDS011;3639;51.308;5.624;2023-04-15T10:00:57;6.30;;;4.30;;
7195;SDS011;3639;51.308;5.624;2023-04-15T10:03:29;5.63;;;3.20;;
7195;SDS011;3639;51.308;5.624;2023-04-15T10:05:56;3.37;;;2.90;;
7195;SDS011;3639;51.308;5.624;2023-04-15T10:08:28;3.47;;;2.57;;
7195;SDS011;3639;51.308;5.624;2023-04-15T10:10:54;5.90;;;3.23;;
7195;SDS011;3639;51.308;5.624;2023-04-15T10:13:22;3.10;;;2.67;;
7195;SDS011;3639;51.308;5.624;2023-04-15T10:18:25;4.83;;;3.03;;
7195;SDS011;3639;51.308;5.624;2023-04-15T10:20:53;4.03;;;2.60;;
7195;SDS011;3639;51.308;5.624;2023-04-15T10:23:19;4.50;;;3.20;;
7195;SDS011;3639;51.308;5.624;2023-04-15T10:25:46;3.50;;;2.80;;
7195;SDS011;3639;51.308;5.624;2023-04-15T10:28:14;4.23;;;2.67;;
7195;SDS011;3639;51.308;5.624;2023-04-15T10:30:40;2.63;;;2.43;;
7195;SDS011;3639;51.308;5.624;2023-04-15T10:33:07;2.47;;;2.27;;
7195;SDS011;3639;51.308;5.624;2023-04-15T10:35:34;2.70;;;2.10;;
7195;SDS011;3639;51.308;5.624;2023-04-15T10:38:00;5.23;;;2.70;;
7195;SDS011;3639;51.308;5.624;2023-04-15T10:40:27;3.43;;;2.77;;
7195;SDS011;3639;51.308;5.624;2023-04-15T10:42:59;3.40;;;2.43;;
7195;SDS011;3639;51.308;5.624;2023-04-15T10:45:26;2.93;;;2.40;;
7195;SDS011;3639;51.308;5.624;2023-04-15T10:47:56;3.63;;;2.77;;
7195;SDS011;3639;51.308;5.624;2023-04-15T10:50:24;3.30;;;3.00;;
7195;SDS011;3639;51.308;5.624;2023-04-15T10:52:51;4.30;;;3.17;;
7195;SDS011;3639;51.308;5.624;2023-04-15T10:55:20;4.00;;;3.10;;
7195;SDS011;3639;51.308;5.624;2023-04-15T10:57:54;3.80;;;2.77;;
7195;SDS011;3639;51.308;5.624;2023-04-15T11:00:25;3.90;;;2.50;;
7195;SDS011;3639;51.308;5.624;2023-04-15T11:05:21;4.53;;;2.57;;
7195;SDS011;3639;51.308;5.624;2023-04-15T11:08:11;3.10;;;2.63;;
7195;SDS011;3639;51.308;5.624;2023-04-15T11:13:03;5.23;;;2.80;;
7195;SDS011;3639;51.308;5.624;2023-04-15T11:15:45;4.93;;;3.07;;
7195;SDS011;3639;51.308;5.624;2023-04-15T11:18:15;3.43;;;2.97;;
7195;SDS011;3639;51.308;5.624;2023-04-15T11:20:42;3.07;;;2.53;;
7195;SDS011;3639;51.308;5.624;2023-04-15T11:23:09;2.87;;;2.43;;
7195;SDS011;3639;51.308;5.624;2023-04-15T11:25:35;3.47;;;2.43;;
7195;SDS011;3639;51.308;5.624;2023-04-15T11:28:01;4.83;;;3.23;;
7195;SDS011;3639;51.308;5.624;2023-04-15T11:30:29;3.90;;;2.70;;
7195;SDS011;3639;51.308;5.624;2023-04-15T11:33:05;2.57;;;2.37;;
7195;SDS011;3639;51.308;5.624;2023-04-15T11:35:33;3.93;;;2.60;;
7195;SDS011;3639;51.308;5.624;2023-04-15T11:38:02;2.30;;;2.10;;
7195;SDS011;3639;51.308;5.624;2023-04-15T11:40:30;3.00;;;2.20;;
7195;SDS011;3639;51.308;5.624;2023-04-15T11:43:16;3.80;;;2.40;;
7195;SDS011;3639;51.308;5.624;2023-04-15T11:45:51;3.87;;;3.00;;
7195;SDS011;3639;51.308;5.624;2023-04-15T11:48:25;3.60;;;2.40;;
7195;SDS011;3639;51.308;5.624;2023-04-15T11:50:56;3.93;;;2.40;;
7195;SDS011;3639;51.308;5.624;2023-04-15T11:53:45;3.30;;;2.30;;
7195;SDS011;3639;51.308;5.624;2023-04-15T11:58:45;3.90;;;2.43;;
7195;SDS011;3639;51.308;5.624;2023-04-15T12:01:11;2.67;;;2.03;;
7195;SDS011;3639;51.308;5.624;2023-04-15T12:03:40;2.40;;;2.03;;
7195;SDS011;3639;51.308;5.624;2023-04-15T12:08:49;2.83;;;2.10;;
7195;SDS011;3639;51.308;5.624;2023-04-15T12:13:53;2.23;;;2.00;;
7195;SDS011;3639;51.308;5.624;2023-04-15T12:16:21;3.53;;;2.10;;
7195;SDS011;3639;51.308;5.624;2023-04-15T12:18:51;2.70;;;2.10;;
7195;SDS011;3639;51.308;5.624;2023-04-15T12:21:18;3.57;;;2.20;;
7195;SDS011;3639;51.308;5.624;2023-04-15T12:23:54;2.30;;;1.80;;
7195;SDS011;3639;51.308;5.624;2023-04-15T12:26:25;1.97;;;1.77;;
7195;SDS011;3639;51.308;5.624;2023-04-15T12:28:55;3.17;;;2.23;;
7195;SDS011;3639;51.308;5.624;2023-04-15T12:31:28;2.43;;;2.07;;
7195;SDS011;3639;51.308;5.624;2023-04-15T12:33:55;3.40;;;2.63;;
7195;SDS011;3639;51.308;5.624;2023-04-15T12:36:25;3.60;;;2.57;;
7195;SDS011;3639;51.308;5.624;2023-04-15T12:38:52;2.93;;;2.50;;
7195;SDS011;3639;51.308;5.624;2023-04-15T12:41:18;3.17;;;2.27;;
7195;SDS011;3639;51.308;5.624;2023-04-15T12:43:45;3.40;;;2.40;;
7195;SDS011;3639;51.308;5.624;2023-04-15T12:46:12;2.40;;;2.13;;
7195;SDS011;3639;51.308;5.624;2023-04-15T12:48:38;3.07;;;2.60;;
7195;SDS011;3639;51.308;5.624;2023-04-15T12:51:05;3.13;;;2.47;;
7195;SDS011;3639;51.308;5.624;2023-04-15T12:53:30;3.20;;;2.20;;
7195;SDS011;3639;51.308;5.624;2023-04-15T12:55:56;2.77;;;2.30;;
7195;SDS011;3639;51.308;5.624;2023-04-15T12:58:22;3.53;;;2.20;;
7195;SDS011;3639;51.308;5.624;2023-04-15T13:00:48;2.93;;;2.10;;
7195;SDS011;3639;51.308;5.624;2023-04-15T13:03:14;2.20;;;1.90;;
7195;SDS011;3639;51.308;5.624;2023-04-15T13:05:40;2.27;;;2.07;;
7195;SDS011;3639;51.308;5.624;2023-04-15T13:08:06;3.43;;;2.20;;
7195;SDS011;3639;51.308;5.624;2023-04-15T13:10:32;3.83;;;2.00;;
7195;SDS011;3639;51.308;5.624;2023-04-15T13:13:00;2.77;;;1.87;;
7195;SDS011;3639;51.308;5.624;2023-04-15T13:15:27;2.73;;;2.10;;
7195;SDS011;3639;51.308;5.624;2023-04-15T13:17:53;2.60;;;2.20;;
7195;SDS011;3639;51.308;5.624;2023-04-15T13:20:19;2.43;;;2.10;;
7195;SDS011;3639;51.308;5.624;2023-04-15T13:22:44;4.20;;;2.67;;
7195;SDS011;3639;51.308;5.624;2023-04-15T13:25:10;2.90;;;2.30;;
7195;SDS011;3639;51.308;5.624;2023-04-15T13:27:36;2.30;;;2.00;;
7195;SDS011;3639;51.308;5.624;2023-04-15T13:30:02;2.53;;;2.03;;
7195;SDS011;3639;51.308;5.624;2023-04-15T13:32:29;2.53;;;1.83;;
7195;SDS011;3639;51.308;5.624;2023-04-15T13:34:54;2.30;;;2.00;;
7195;SDS011;3639;51.308;5.624;2023-04-15T13:37:24;3.00;;;2.40;;
7195;SDS011;3639;51.308;5.624;2023-04-15T13:39:54;3.40;;;2.40;;
7195;SDS011;3639;51.308;5.624;2023-04-15T13:42:20;2.50;;;2.30;;
7195;SDS011;3639;51.308;5.624;2023-04-15T13:44:48;2.97;;;2.47;;
7195;SDS011;3639;51.308;5.624;2023-04-15T13:47:15;3.67;;;2.53;;
7195;SDS011;3639;51.308;5.624;2023-04-15T13:49:41;5.13;;;2.70;;
7195;SDS011;3639;51.308;5.624;2023-04-15T13:52:07;3.83;;;2.30;;
7195;SDS011;3639;51.308;5.624;2023-04-15T13:54:33;3.47;;;2.17;;
7195;SDS011;3639;51.308;5.624;2023-04-15T13:56:58;4.30;;;2.43;;
7195;SDS011;3639;51.308;5.624;2023-04-15T13:59:25;3.70;;;2.50;;
7195;SDS011;3639;51.308;5.624;2023-04-15T14:01:51;2.83;;;2.40;;
7195;SDS011;3639;51.308;5.624;2023-04-15T14:04:17;2.83;;;2.23;;
7195;SDS011;3639;51.308;5.624;2023-04-15T14:06:43;2.93;;;2.10;;
7195;SDS011;3639;51.308;5.624;2023-04-15T14:09:08;5.27;;;2.10;;
7195;SDS011;3639;51.308;5.624;2023-04-15T14:11:34;2.73;;;2.10;;
7195;SDS011;3639;51.308;5.624;2023-04-15T14:14:02;3.33;;;2.27;;
7195;SDS011;3639;51.308;5.624;2023-04-15T14:16:27;2.70;;;1.90;;
7195;SDS011;3639;51.308;5.624;2023-04-15T14:18:53;3.20;;;2.67;;
7195;SDS011;3639;51.308;5.624;2023-04-15T14:21:19;4.77;;;2.00;;
7195;SDS011;3639;51.308;5.624;2023-04-15T14:23:45;1.83;;;1.70;;
7195;SDS011;3639;51.308;5.624;2023-04-15T14:26:10;2.17;;;1.90;;
7195;SDS011;3639;51.308;5.624;2023-04-15T14:28:37;3.00;;;1.83;;
7195;SDS011;3639;51.308;5.624;2023-04-15T14:31:03;3.77;;;1.87;;
7195;SDS011;3639;51.308;5.624;2023-04-15T14:33:28;2.30;;;2.10;;
7195;SDS011;3639;51.308;5.624;2023-04-15T14:35:54;2.53;;;1.70;;
7195;SDS011;3639;51.308;5.624;2023-04-15T14:38:20;5.37;;;2.30;;
7195;SDS011;3639;51.308;5.624;2023-04-15T14:40:46;2.93;;;2.03;;
7195;SDS011;3639;51.308;5.624;2023-04-15T14:43:12;2.07;;;1.80;;
7195;SDS011;3639;51.308;5.624;2023-04-15T14:45:38;2.47;;;1.87;;
7195;SDS011;3639;51.308;5.624;2023-04-15T14:48:03;1.67;;;1.57;;
7195;SDS011;3639;51.308;5.624;2023-04-15T14:50:31;2.13;;;1.93;;
7195;SDS011;3639;51.308;5.624;2023-04-15T14:52:57;2.13;;;1.73;;
7195;SDS011;3639;51.308;5.624;2023-04-15T14:55:23;1.63;;;1.50;;
7195;SDS011;3639;51.308;5.624;2023-04-15T14:57:49;2.07;;;1.87;;
7195;SDS011;3639;51.308;5.624;2023-04-15T15:00:14;1.67;;;1.50;;
7195;SDS011;3639;51.308;5.624;2023-04-15T15:02:40;6.10;;;1.60;;
7195;SDS011;3639;51.308;5.624;2023-04-15T15:05:06;3.03;;;1.37;;
7195;SDS011;3639;51.308;5.624;2023-04-15T15:07:34;1.77;;;1.50;;
7195;SDS011;3639;51.308;5.624;2023-04-15T15:10:02;3.20;;;1.47;;
7195;SDS011;3639;51.308;5.624;2023-04-15T15:12:28;1.97;;;1.43;;
7195;SDS011;3639;51.308;5.624;2023-04-15T15:14:54;3.13;;;1.60;;
7195;SDS011;3639;51.308;5.624;2023-04-15T15:17:20;2.00;;;1.70;;
7195;SDS011;3639;51.308;5.624;2023-04-15T15:19:46;1.43;;;1.23;;
7195;SDS011;3639;51.308;5.624;2023-04-15T15:22:11;1.67;;;1.50;;
7195;SDS011;3639;51.308;5.624;2023-04-15T15:24:37;3.07;;;1.60;;
7195;SDS011;3639;51.308;5.624;2023-04-15T15:27:03;1.70;;;1.60;;